createdAt,value
2023-03-17T00:00:50.771Z,-1.00
2023-03-17T00:03:27.194Z,-0.98
2023-03-17T00:05:58.581Z,-0.95
2023-03-17T00:08:30.206Z,-0.93
2023-03-17T00:10:59.828Z,-0.93
2023-03-17T00:13:30.919Z,-0.93
2023-03-17T00:16:04.681Z,-0.90
2023-03-17T00:18:35.592Z,-0.87
2023-03-17T00:21:05.383Z,-0.84
2023-03-17T00:23:35.660Z,-0.81
2023-03-17T00:26:05.271Z,-0.80
2023-03-17T00:28:33.972Z,-0.80
2023-03-17T00:31:17.116Z,-0.76
2023-03-17T00:33:46.893Z,-0.71
2023-03-17T00:36:20.295Z,-0.69
2023-03-17T00:38:50.035Z,-0.70
2023-03-17T00:41:18.857Z,-0.68
2023-03-17T00:43:47.548Z,-0.67
2023-03-17T00:46:22.202Z,-0.67
2023-03-17T00:48:51.593Z,-0.67
2023-03-17T00:51:21.492Z,-0.64
2023-03-17T00:53:50.465Z,-0.61
2023-03-17T00:56:21.423Z,-0.58
2023-03-17T00:58:50.165Z,-0.54
2023-03-17T01:01:19.193Z,-0.54
2023-03-17T01:03:48.298Z,-0.50
2023-03-17T01:06:17.272Z,-0.47
2023-03-17T01:08:46.932Z,-0.45
2023-03-17T01:11:19.109Z,-0.50
2023-03-17T01:13:47.946Z,-0.52
2023-03-17T01:16:17.338Z,-0.49
2023-03-17T01:18:46.324Z,-0.46
2023-03-17T01:21:15.677Z,-0.44
2023-03-17T01:23:44.388Z,-0.44
2023-03-17T01:26:12.944Z,-0.46
2023-03-17T01:28:42.263Z,-0.45
2023-03-17T01:31:11.095Z,-0.43
2023-03-17T01:33:39.746Z,-0.40
2023-03-17T01:36:11.216Z,-0.39
2023-03-17T01:38:40.124Z,-0.37
2023-03-17T01:41:09.059Z,-0.34
2023-03-17T01:43:38.830Z,-0.33
2023-03-17T01:46:13.821Z,-0.28
2023-03-17T01:48:44.909Z,-0.25
2023-03-17T01:51:19.401Z,-0.25
2023-03-17T01:53:51.506Z,-0.25
2023-03-17T01:56:22.029Z,-0.27
2023-03-17T01:58:54.919Z,-0.28
2023-03-17T02:01:29.422Z,-0.30
2023-03-17T02:03:59.883Z,-0.34
2023-03-17T02:06:29.889Z,-0.37
2023-03-17T02:09:00.124Z,-0.36
2023-03-17T02:11:30.400Z,-0.35
2023-03-17T02:13:59.480Z,-0.36
2023-03-17T02:16:32.088Z,-0.37
2023-03-17T02:19:00.892Z,-0.38
2023-03-17T02:21:32.906Z,-0.41
2023-03-17T02:24:08.326Z,-0.44
2023-03-17T02:26:39.095Z,-0.43
2023-03-17T02:29:08.338Z,-0.46
2023-03-17T02:31:37.432Z,-0.46
2023-03-17T02:34:06.438Z,-0.47
2023-03-17T02:36:36.047Z,-0.47
2023-03-17T02:39:05.366Z,-0.50
2023-03-17T02:41:34.837Z,-0.53
2023-03-17T02:44:10.445Z,-0.56
2023-03-17T02:46:39.939Z,-0.60
2023-03-17T02:49:10.126Z,-0.66
2023-03-17T02:51:39.205Z,-0.71
2023-03-17T02:54:07.864Z,-0.73
2023-03-17T02:56:37.134Z,-0.73
2023-03-17T02:59:06.507Z,-0.73
2023-03-17T03:01:35.558Z,-0.74
2023-03-17T03:04:04.261Z,-0.74
2023-03-17T03:06:33.048Z,-0.74
2023-03-17T03:09:01.673Z,-0.73
2023-03-17T03:11:30.313Z,-0.73
2023-03-17T03:13:58.957Z,-0.72
2023-03-17T03:16:27.663Z,-0.70
2023-03-17T03:18:56.350Z,-0.72
2023-03-17T03:21:25.433Z,-0.74
2023-03-17T03:23:54.014Z,-0.76
2023-03-17T03:26:23.145Z,-0.78
2023-03-17T03:28:51.860Z,-0.80
2023-03-17T03:31:20.982Z,-0.80
2023-03-17T03:33:49.757Z,-0.81
2023-03-17T03:36:19.060Z,-0.84
2023-03-17T03:38:47.795Z,-0.87
2023-03-17T03:41:16.351Z,-0.91
2023-03-17T03:43:45.103Z,-0.98
2023-03-17T03:46:13.606Z,-1.03
2023-03-17T03:48:42.178Z,-1.06
2023-03-17T03:51:10.803Z,-1.10
2023-03-17T03:53:40.274Z,-1.13
2023-03-17T03:56:09.610Z,-1.16
2023-03-17T03:58:38.602Z,-1.20
2023-03-17T04:01:08.549Z,-1.22
2023-03-17T04:03:38.973Z,-1.23
2023-03-17T04:06:08.032Z,-1.25
2023-03-17T04:08:37.853Z,-1.24
2023-03-17T04:11:07.040Z,-1.18
2023-03-17T04:13:36.287Z,-1.14
2023-03-17T04:16:06.954Z,-1.10
2023-03-17T04:18:36.011Z,-1.05
2023-03-17T04:21:04.980Z,-0.97
2023-03-17T04:23:34.198Z,-0.89
2023-03-17T04:26:04.388Z,-0.80
2023-03-17T04:28:32.947Z,-0.77
2023-03-17T04:31:01.826Z,-0.74
2023-03-17T04:33:30.461Z,-0.69
2023-03-17T04:35:59.558Z,-0.64
2023-03-17T04:38:28.680Z,-0.58
2023-03-17T04:40:57.274Z,-0.54
2023-03-17T04:43:26.173Z,-0.51
2023-03-17T04:45:55.307Z,-0.46
2023-03-17T04:48:23.929Z,-0.44
2023-03-17T04:50:52.426Z,-0.42
2023-03-17T04:53:20.993Z,-0.39
2023-03-17T04:55:49.794Z,-0.36
2023-03-17T04:58:30.060Z,-0.33
2023-03-17T05:01:02.767Z,-0.29
2023-03-17T05:03:33.631Z,-0.27
2023-03-17T05:06:03.501Z,-0.24
2023-03-17T05:08:32.389Z,-0.23
2023-03-17T05:11:01.494Z,-0.21
2023-03-17T05:13:30.212Z,-0.18
2023-03-17T05:15:59.902Z,-0.15
2023-03-17T05:18:28.713Z,-0.14
2023-03-17T05:20:57.460Z,-0.08
2023-03-17T05:23:27.293Z,-0.01
2023-03-17T05:25:56.632Z,0.05
2023-03-17T05:28:25.676Z,0.09
2023-03-17T05:30:54.930Z,0.11
2023-03-17T05:33:23.524Z,0.16
2023-03-17T05:35:53.925Z,0.25
2023-03-17T05:38:23.316Z,0.29
2023-03-17T05:40:53.103Z,0.33
2023-03-17T05:43:22.637Z,0.36
2023-03-17T05:45:51.947Z,0.37
2023-03-17T05:48:21.432Z,0.40
2023-03-17T05:50:51.076Z,0.43
2023-03-17T05:53:22.160Z,0.45
2023-03-17T05:55:52.528Z,0.46
2023-03-17T05:58:28.021Z,0.49
2023-03-17T06:01:00.310Z,0.56
2023-03-17T06:03:32.768Z,0.66
2023-03-17T06:06:03.831Z,0.75
2023-03-17T06:08:41.851Z,0.80
2023-03-17T06:11:15.810Z,0.82
2023-03-17T06:13:50.181Z,0.86
2023-03-17T06:16:19.991Z,0.88
2023-03-17T06:18:50.139Z,0.89
2023-03-17T06:21:21.780Z,0.93
2023-03-17T06:23:50.610Z,0.98
2023-03-17T06:26:22.652Z,1.03
2023-03-17T06:28:52.463Z,1.09
2023-03-17T06:36:14.223Z,1.29
2023-03-17T06:39:16.121Z,1.44
2023-03-17T06:42:37.423Z,1.56
2023-03-17T06:45:47.134Z,1.69
2023-03-17T06:49:07.860Z,1.83
2023-03-17T06:52:23.287Z,2.03
2023-03-17T06:55:56.523Z,2.37
2023-03-17T07:07:45.619Z,6.04
2023-03-17T07:11:16.062Z,6.58
2023-03-17T07:15:05.289Z,7.02
2023-03-17T07:18:46.213Z,6.91
2023-03-17T07:22:17.424Z,7.81
2023-03-17T07:26:01.243Z,8.68
2023-03-17T07:29:33.604Z,9.61
2023-03-17T07:33:07.328Z,10.27
2023-03-17T07:40:01.429Z,10.13
2023-03-17T07:50:55.365Z,10.86
2023-03-17T07:54:32.117Z,11.52
2023-03-17T07:58:35.757Z,11.94
2023-03-17T08:06:10.370Z,12.13
2023-03-17T08:28:50.788Z,7.34
2023-03-17T08:32:20.657Z,7.13
2023-03-17T08:35:30.841Z,8.03
2023-03-17T08:39:08.470Z,8.59
2023-03-17T08:45:15.453Z,9.12
2023-03-17T08:48:51.159Z,9.37
2023-03-17T08:52:21.096Z,9.07
2023-03-17T08:55:57.657Z,8.79
2023-03-17T08:59:34.386Z,8.85
2023-03-17T09:09:56.746Z,9.21
2023-03-17T09:13:58.359Z,9.06
2023-03-17T09:17:43.174Z,8.96
2023-03-17T09:20:49.525Z,8.56
2023-03-17T09:24:02.885Z,8.29
2023-03-17T09:31:34.176Z,8.08
2023-03-17T09:35:09.774Z,8.26
2023-03-17T09:39:00.439Z,8.46
2023-03-17T09:42:34.923Z,8.22
2023-03-17T09:46:14.539Z,8.14
2023-03-17T09:49:58.456Z,8.11
2023-03-17T10:01:02.718Z,7.70
2023-03-17T10:04:33.453Z,7.59
2023-03-17T10:08:27.057Z,7.52
2023-03-17T10:12:29.501Z,7.37
2023-03-17T10:16:06.797Z,7.29
2023-03-17T10:23:39.120Z,7.28
2023-03-17T10:27:06.531Z,8.88
2023-03-17T10:30:13.424Z,9.49
2023-03-17T10:33:53.607Z,9.20
2023-03-17T10:40:45.333Z,9.19
2023-03-17T10:44:10.714Z,9.34
2023-03-17T10:47:57.833Z,9.39
2023-03-17T10:51:27.294Z,9.17
2023-03-17T10:59:02.966Z,9.02
2023-03-17T11:02:37.457Z,8.95
2023-03-17T11:09:37.403Z,8.80
2023-03-17T11:20:08.360Z,8.92
2023-03-17T11:23:16.446Z,9.04
2023-03-17T11:27:04.873Z,9.01
2023-03-17T11:30:14.821Z,9.41
2023-03-17T11:34:03.689Z,10.61
2023-03-17T11:38:04.500Z,13.12
2023-03-17T11:41:29.539Z,15.52
2023-03-17T11:45:41.438Z,16.63
2023-03-17T11:49:44.662Z,16.60
2023-03-17T11:57:24.416Z,16.63
2023-03-17T12:00:42.753Z,14.58
2023-03-17T12:04:48.239Z,12.53
2023-03-17T12:11:41.976Z,10.08
2023-03-17T12:15:10.190Z,9.90
2023-03-17T12:23:15.555Z,9.83
2023-03-17T12:26:52.492Z,9.77
2023-03-17T12:30:38.054Z,9.87
2023-03-17T12:34:33.091Z,9.85
2023-03-17T12:38:04.752Z,9.77
2023-03-17T12:41:32.463Z,9.68
2023-03-17T12:45:11.973Z,9.65
2023-03-17T12:48:52.891Z,9.58
2023-03-17T12:52:30.501Z,9.72
2023-03-17T12:56:00.920Z,9.72
2023-03-17T12:59:32.843Z,9.74
2023-03-17T13:03:09.403Z,9.95
2023-03-17T13:06:37.945Z,10.22
2023-03-17T13:10:18.250Z,10.22
2023-03-17T13:13:52.011Z,10.33
2023-03-17T13:17:27.401Z,10.31
2023-03-17T13:21:19.550Z,10.23
2023-03-17T13:24:58.828Z,10.01
2023-03-17T13:28:35.639Z,9.91
2023-03-17T13:32:14.541Z,9.81
2023-03-17T13:36:03.192Z,9.81
2023-03-17T13:39:34.260Z,9.80
2023-03-17T13:43:00.379Z,9.81
2023-03-17T13:46:41.339Z,9.82
2023-03-17T13:50:19.966Z,9.82
2023-03-17T13:53:50.216Z,9.79
2023-03-17T13:57:22.220Z,9.87
2023-03-17T14:01:03.620Z,10.07
2023-03-17T14:04:42.432Z,10.05
2023-03-17T14:08:48.230Z,10.03
2023-03-17T14:12:26.892Z,10.02
2023-03-17T14:16:05.401Z,10.09
2023-03-17T14:19:42.591Z,10.08
2023-03-17T14:56:52.845Z,9.51
2023-03-17T15:00:37.268Z,9.50
2023-03-17T15:04:16.105Z,9.45
2023-03-17T15:07:48.564Z,9.43
2023-03-17T15:30:29.422Z,9.32
2023-03-17T15:34:01.741Z,9.18
2023-03-17T16:00:05.380Z,8.64
2023-03-17T16:03:36.538Z,8.54
2023-03-17T16:07:14.103Z,8.47
2023-03-17T16:10:43.439Z,8.42
2023-03-17T16:14:15.208Z,8.33
2023-03-17T16:17:48.472Z,8.25
2023-03-17T16:21:34.309Z,8.18
2023-03-17T16:43:28.236Z,7.69
2023-03-17T16:47:02.922Z,7.60
2023-03-17T16:50:23.542Z,7.53
2023-03-17T16:54:12.124Z,7.46
2023-03-17T16:57:25.913Z,7.36
2023-03-17T17:01:15.843Z,7.30
2023-03-17T17:08:30.218Z,7.17
2023-03-17T17:12:22.007Z,7.18
2023-03-17T17:16:08.602Z,7.18
2023-03-17T17:19:22.318Z,7.14
2023-03-17T17:23:03.903Z,7.18
2023-03-17T17:26:45.362Z,7.20
2023-03-17T17:34:47.389Z,7.12
2023-03-17T17:38:19.108Z,7.05
2023-03-17T17:41:55.848Z,7.01
2023-03-17T17:45:07.126Z,6.98
2023-03-17T17:48:39.721Z,6.91
2023-03-17T18:07:14.597Z,6.76
2023-03-17T18:23:11.703Z,6.64
2023-03-17T18:26:43.979Z,6.51
2023-03-17T18:49:52.349Z,6.27
2023-03-17T18:53:38.347Z,6.24
2023-03-17T18:56:54.795Z,6.21
2023-03-17T19:00:30.805Z,6.18
2023-03-17T19:07:35.527Z,6.05
2023-03-17T19:11:50.622Z,6.09
2023-03-17T19:15:39.925Z,6.12
2023-03-17T19:19:22.465Z,6.04
2023-03-17T19:48:13.622Z,5.71
2023-03-17T19:52:04.929Z,5.70
2023-03-17T19:55:48.784Z,5.71
2023-03-17T19:59:25.423Z,5.73
2023-03-17T20:22:40.694Z,5.45
2023-03-17T20:30:15.054Z,5.29
2023-03-17T20:34:01.539Z,5.21
2023-03-17T20:48:59.044Z,5.14
2023-03-17T20:52:37.903Z,5.09
2023-03-17T20:56:24.525Z,5.01
2023-03-17T21:00:10.173Z,4.97
2023-03-17T21:15:22.391Z,4.89
2023-03-17T21:19:01.384Z,4.80
2023-03-17T21:26:50.185Z,4.73
2023-03-17T21:30:21.713Z,4.70
2023-03-17T21:33:58.042Z,4.69
2023-03-17T21:37:27.757Z,4.67
2023-03-17T21:45:15.640Z,4.68
2023-03-17T22:10:45.642Z,4.40
2023-03-17T22:14:23.905Z,4.38
2023-03-17T22:18:02.581Z,4.33
2023-03-17T22:33:01.672Z,4.25
2023-03-17T23:10:53.819Z,4.15
2023-03-17T23:14:35.843Z,4.15
2023-03-17T23:18:14.646Z,4.09
2023-03-17T23:25:10.085Z,4.05
2023-03-17T23:51:01.550Z,3.86
2023-03-17T23:58:31.385Z,3.83
